Lynnwood, Washington
Current Conditions -  °F | °C
As of 1:53 PM on Tuesday 21 Oct 2014 (Local Time) from KPAE Reporting Station
Scattered Clouds Scattered Clouds  
Wind Chill: 57°   Ceiling: Unl
Heat Index: 57°   Visibility: 10mi
Dew Point: 49°   Wind: 22mph
Humidity: 74%   Direction: 180°S
Pressure: 29.9"   Gusts: 32mph
Location:  47.83°N, 122.29°W
Report Text: KPAE 212053Z 18019G28KT 10SM FEW043 SCT065 14/09 A2990 RMK AO2 PK WND 19029/2016 RAB02E13B29E49 SLP124 P0000 60001 T01390094 58003
Loading
Personal Weather Stations






























Interactive Weather Map
Tropical Storm Tracking
New forecast layout! Learn more

10-Day Weather Forecast

Advertisements
Track Severe Weather on mobile